createdAt,value
2023-07-22T00:01:41.605Z,18.06
2023-07-22T00:04:08.021Z,18.02
2023-07-22T00:06:34.381Z,17.97
2023-07-22T00:09:00.691Z,17.98
2023-07-22T00:11:27.035Z,17.94
2023-07-22T00:13:53.343Z,17.92
2023-07-22T00:16:19.790Z,17.87
2023-07-22T00:18:46.080Z,17.85
2023-07-22T00:21:12.446Z,17.82
2023-07-22T00:23:38.904Z,17.79
2023-07-22T00:26:05.263Z,17.78
2023-07-22T00:28:31.535Z,17.77
2023-07-22T00:30:58.420Z,17.76
2023-07-22T00:33:25.002Z,17.75
2023-07-22T00:35:51.751Z,17.73
2023-07-22T00:38:18.276Z,17.74
2023-07-22T00:40:44.869Z,17.74
2023-07-22T00:43:11.947Z,17.76
2023-07-22T00:45:38.309Z,17.74
2023-07-22T00:48:06.086Z,17.79
2023-07-22T00:50:34.291Z,17.75
2023-07-22T00:53:00.733Z,17.76
2023-07-22T00:55:27.768Z,17.70
2023-07-22T00:57:55.749Z,17.67
2023-07-22T01:00:22.469Z,17.67
2023-07-22T01:02:48.872Z,17.66
2023-07-22T01:05:15.243Z,17.62
2023-07-22T01:07:42.900Z,17.61
2023-07-22T01:10:09.748Z,17.59
2023-07-22T01:12:36.603Z,17.53
2023-07-22T01:15:08.435Z,17.48
2023-07-22T01:17:37.331Z,17.45
2023-07-22T01:20:04.629Z,17.41
2023-07-22T01:22:32.117Z,17.30
2023-07-22T01:24:59.286Z,17.38
2023-07-22T01:27:25.680Z,17.39
2023-07-22T01:29:52.858Z,17.37
2023-07-22T01:32:21.116Z,17.37
2023-07-22T01:34:47.470Z,17.42
2023-07-22T01:37:13.775Z,17.43
2023-07-22T01:39:40.098Z,17.40
2023-07-22T01:42:06.509Z,17.34
2023-07-22T01:44:32.796Z,17.30
2023-07-22T01:47:03.397Z,17.25
2023-07-22T01:49:30.101Z,17.23
2023-07-22T01:51:56.938Z,17.21
2023-07-22T01:54:23.352Z,17.17
2023-07-22T01:56:49.713Z,17.13
2023-07-22T01:59:16.023Z,17.10
2023-07-22T02:01:42.360Z,17.02
2023-07-22T02:04:08.980Z,17.02
2023-07-22T02:06:35.807Z,17.01
2023-07-22T02:09:09.117Z,16.99
2023-07-22T02:11:38.530Z,16.95
2023-07-22T02:14:07.775Z,16.88
2023-07-22T02:16:38.488Z,16.93
2023-07-22T02:19:05.257Z,16.90
2023-07-22T02:21:31.702Z,16.87
2023-07-22T02:23:58.018Z,16.83
2023-07-22T02:26:25.448Z,16.75
2023-07-22T02:28:52.049Z,16.69
2023-07-22T02:31:18.433Z,16.60
2023-07-22T02:33:44.889Z,16.58
2023-07-22T02:36:11.276Z,16.54
2023-07-22T02:38:37.625Z,16.51
2023-07-22T02:41:08.698Z,16.43
2023-07-22T02:43:36.120Z,16.42
2023-07-22T02:46:04.251Z,16.34
2023-07-22T02:48:32.369Z,16.27
2023-07-22T02:51:08.957Z,16.23
2023-07-22T02:53:37.640Z,16.20
2023-07-22T02:56:05.538Z,16.16
2023-07-22T02:58:31.897Z,16.12
2023-07-22T03:00:58.986Z,16.11
2023-07-22T03:03:25.359Z,16.11
2023-07-22T03:05:52.997Z,16.09
2023-07-22T03:08:19.545Z,16.04
2023-07-22T03:10:49.709Z,16.03
2023-07-22T03:13:17.388Z,15.99
2023-07-22T03:15:44.082Z,15.97
2023-07-22T03:18:11.085Z,15.89
2023-07-22T03:20:38.660Z,15.91
2023-07-22T03:23:05.869Z,15.85
2023-07-22T03:25:33.520Z,15.82
2023-07-22T03:28:04.426Z,15.77
2023-07-22T03:30:31.158Z,15.70
2023-07-22T03:32:58.281Z,15.61
2023-07-22T03:35:24.695Z,15.59
2023-07-22T03:37:51.048Z,15.56
2023-07-22T03:40:43.494Z,15.62
2023-07-22T03:43:09.917Z,15.63
2023-07-22T03:45:36.305Z,15.65
2023-07-22T03:48:02.789Z,15.66
2023-07-22T03:50:29.442Z,15.65
2023-07-22T03:52:55.993Z,15.63
2023-07-22T03:55:22.317Z,15.61
2023-07-22T03:57:48.753Z,15.60
2023-07-22T04:00:15.368Z,15.56
2023-07-22T04:02:42.713Z,15.49
2023-07-22T04:05:09.671Z,15.46
2023-07-22T04:07:36.269Z,15.47
2023-07-22T04:10:03.682Z,15.51
2023-07-22T04:12:30.300Z,15.51
2023-07-22T04:14:56.643Z,15.50
2023-07-22T04:17:23.073Z,15.50
2023-07-22T04:19:49.379Z,15.50
2023-07-22T04:22:15.741Z,15.51
2023-07-22T04:24:42.238Z,15.50
2023-07-22T04:27:08.770Z,15.55
2023-07-22T04:29:36.320Z,15.53
2023-07-22T04:32:03.378Z,15.50
2023-07-22T04:34:33.814Z,15.55
2023-07-22T04:37:00.280Z,15.54
2023-07-22T04:39:26.635Z,15.55
2023-07-22T04:41:53.156Z,15.58
2023-07-22T04:44:20.087Z,15.62
2023-07-22T04:46:46.950Z,15.63
2023-07-22T04:49:18.521Z,15.60
2023-07-22T04:51:47.908Z,15.60
2023-07-22T04:54:15.668Z,15.65
2023-07-22T04:56:42.861Z,15.69
2023-07-22T04:59:09.842Z,15.73
2023-07-22T05:01:36.482Z,15.74
2023-07-22T05:04:02.874Z,15.77
2023-07-22T05:06:29.891Z,15.82
2023-07-22T05:08:56.520Z,15.86
2023-07-22T05:11:24.282Z,15.90
2023-07-22T05:13:51.799Z,15.96
2023-07-22T05:16:18.457Z,16.01
2023-07-22T05:18:44.786Z,16.06
2023-07-22T05:21:11.121Z,16.11
2023-07-22T05:23:37.473Z,16.16
2023-07-22T05:26:03.869Z,16.20
2023-07-22T05:28:30.262Z,16.28
2023-07-22T05:30:57.350Z,16.37
2023-07-22T05:33:23.812Z,16.47
2023-07-22T05:35:50.241Z,16.54
2023-07-22T05:38:16.577Z,16.63
2023-07-22T05:40:42.897Z,16.74
2023-07-22T05:43:09.478Z,16.86
2023-07-22T05:45:35.825Z,16.99
2023-07-22T05:48:02.197Z,17.14
2023-07-22T05:50:28.533Z,17.31
2023-07-22T05:52:54.937Z,17.48
2023-07-22T05:55:21.601Z,17.64
2023-07-22T05:57:48.024Z,17.76
2023-07-22T06:00:14.595Z,17.89
2023-07-22T06:02:41.126Z,17.99
2023-07-22T06:05:07.925Z,18.09
2023-07-22T06:07:34.497Z,18.19
2023-07-22T06:10:00.815Z,18.27
2023-07-22T06:14:58.820Z,18.43
2023-07-22T06:17:25.427Z,18.49
2023-07-22T06:19:51.808Z,18.62
2023-07-22T06:22:18.065Z,18.76
2023-07-22T06:24:44.469Z,18.85
2023-07-22T06:27:10.979Z,18.91
2023-07-22T06:29:37.340Z,18.95
2023-07-22T06:32:04.219Z,19.07
2023-07-22T06:34:30.640Z,19.17
2023-07-22T06:36:56.915Z,19.23
2023-07-22T06:39:23.325Z,19.34
2023-07-22T06:41:49.655Z,19.34
2023-07-22T06:44:16.111Z,19.49
2023-07-22T06:46:42.635Z,19.55
2023-07-22T06:49:09.671Z,19.62
2023-07-22T06:51:36.103Z,19.69
2023-07-22T06:54:04.116Z,19.82
2023-07-22T06:56:30.704Z,19.91
2023-07-22T06:58:57.902Z,19.93
2023-07-22T07:01:24.402Z,20.05
2023-07-22T07:03:51.333Z,20.07
2023-07-22T07:06:17.719Z,20.16
2023-07-22T07:08:44.040Z,20.25
2023-07-22T07:11:10.318Z,20.38
2023-07-22T07:13:36.634Z,20.42
2023-07-22T07:16:21.506Z,20.56
2023-07-22T07:18:47.890Z,20.62
2023-07-22T07:21:14.153Z,20.56
2023-07-22T07:23:40.459Z,20.70
2023-07-22T07:26:06.763Z,20.82
2023-07-22T07:28:33.096Z,20.89
2023-07-22T07:30:59.403Z,20.93
2023-07-22T07:33:25.712Z,21.01
2023-07-22T07:35:52.032Z,21.14
2023-07-22T07:38:18.603Z,21.19
2023-07-22T07:40:44.937Z,21.32
2023-07-22T07:43:11.288Z,21.46
2023-07-22T07:45:40.776Z,21.55
2023-07-22T07:48:07.176Z,21.79
2023-07-22T07:50:33.844Z,22.05
2023-07-22T07:53:00.519Z,22.38
2023-07-22T07:55:26.893Z,22.71
2023-07-22T07:57:53.275Z,23.07
2023-07-22T08:00:21.281Z,23.29
2023-07-22T08:02:48.097Z,23.74
2023-07-22T08:05:14.617Z,24.31
2023-07-22T08:07:41.010Z,24.55
2023-07-22T08:10:08.468Z,24.58
2023-07-22T08:12:34.863Z,24.70
2023-07-22T08:15:01.185Z,25.18
2023-07-22T08:17:27.509Z,25.96
2023-07-22T08:19:54.425Z,26.16
2023-07-22T08:22:20.812Z,25.94
2023-07-22T08:24:49.725Z,26.04
2023-07-22T08:27:16.461Z,26.15
2023-07-22T08:29:42.789Z,25.92
2023-07-22T08:32:09.157Z,25.93
2023-07-22T08:34:35.502Z,26.60
2023-07-22T08:37:01.853Z,27.82
2023-07-22T08:39:28.176Z,28.73
2023-07-22T08:41:57.152Z,29.11
2023-07-22T08:44:26.249Z,29.34
2023-07-22T08:46:58.395Z,29.74
2023-07-22T08:49:25.445Z,30.09
2023-07-22T08:51:52.118Z,30.63
2023-07-22T08:54:18.557Z,30.72
2023-07-22T08:56:45.296Z,30.00
2023-07-22T08:59:12.284Z,29.24
2023-07-22T09:01:40.360Z,28.83
2023-07-22T09:04:06.870Z,28.67
2023-07-22T09:06:34.372Z,28.54
2023-07-22T09:09:01.698Z,28.33
2023-07-22T09:11:28.227Z,28.29
2023-07-22T09:13:55.246Z,27.73
2023-07-22T09:16:22.836Z,27.43
2023-07-22T09:18:49.361Z,26.88
2023-07-22T09:21:15.792Z,26.47
2023-07-22T09:23:42.276Z,26.29
2023-07-22T09:26:11.446Z,26.37
2023-07-22T09:28:58.073Z,26.94
2023-07-22T09:31:27.400Z,27.86
2023-07-22T09:33:57.191Z,28.18
2023-07-22T09:36:23.724Z,28.50
2023-07-22T09:39:04.367Z,28.42
2023-07-22T09:41:31.835Z,28.31
2023-07-22T09:43:58.323Z,28.02
2023-07-22T09:46:32.879Z,28.32
2023-07-22T09:49:04.206Z,28.07
2023-07-22T09:51:36.288Z,27.75
2023-07-22T09:54:05.666Z,27.29
2023-07-22T09:56:32.694Z,26.65
2023-07-22T09:59:06.784Z,25.96
2023-07-22T10:01:33.193Z,25.42
2023-07-22T10:04:00.167Z,24.94
2023-07-22T10:06:29.217Z,24.53
2023-07-22T10:08:57.779Z,24.15
2023-07-22T10:11:28.799Z,23.94
2023-07-22T10:13:56.830Z,23.80
2023-07-22T10:16:25.292Z,23.65
2023-07-22T10:18:52.650Z,23.40
2023-07-22T10:21:19.796Z,23.19
2023-07-22T10:23:49.083Z,23.06
2023-07-22T10:26:26.156Z,23.08
2023-07-22T10:28:59.525Z,23.12
2023-07-22T10:31:25.995Z,23.11
2023-07-22T10:33:52.860Z,23.07
2023-07-22T10:36:19.396Z,23.13
2023-07-22T10:38:57.223Z,23.36
2023-07-22T10:41:23.779Z,23.81
2023-07-22T10:43:58.534Z,24.53
2023-07-22T10:46:44.565Z,25.06
2023-07-22T10:49:13.384Z,25.22
2023-07-22T10:51:40.068Z,25.35
2023-07-22T10:54:13.330Z,25.38
2023-07-22T10:56:42.292Z,25.35
2023-07-22T10:59:11.387Z,25.65
2023-07-22T11:01:39.702Z,26.27
2023-07-22T11:04:18.027Z,27.20
2023-07-22T11:06:50.478Z,27.91
2023-07-22T11:09:29.102Z,28.02
2023-07-22T11:12:09.707Z,28.08
2023-07-22T11:14:40.286Z,27.70
2023-07-22T11:17:09.345Z,27.10
2023-07-22T11:19:36.368Z,26.57
2023-07-22T11:22:03.053Z,26.30
2023-07-22T11:24:29.649Z,25.94
2023-07-22T11:26:56.881Z,25.55
2023-07-22T11:29:23.515Z,25.45
2023-07-22T11:31:51.379Z,25.44
2023-07-22T11:34:20.119Z,25.37
2023-07-22T11:36:47.764Z,25.36
2023-07-22T11:39:16.967Z,25.30
2023-07-22T11:41:45.100Z,25.22
2023-07-22T11:44:16.596Z,25.31
2023-07-22T11:47:01.318Z,25.47
2023-07-22T11:49:34.698Z,25.51
2023-07-22T11:52:04.451Z,25.42
2023-07-22T11:54:32.830Z,25.36
2023-07-22T11:57:16.996Z,25.25
2023-07-22T11:59:49.087Z,25.21
2023-07-22T12:02:26.745Z,25.14
2023-07-22T12:05:01.959Z,25.18
2023-07-22T12:07:39.210Z,25.25
2023-07-22T12:10:11.143Z,25.62
2023-07-22T12:12:46.897Z,25.82
2023-07-22T12:15:18.473Z,26.12
2023-07-22T12:17:49.595Z,26.29
2023-07-22T12:20:18.051Z,26.17
2023-07-22T12:22:44.593Z,25.98
2023-07-22T12:25:11.318Z,25.84
2023-07-22T12:27:38.761Z,25.74
2023-07-22T12:30:06.854Z,25.75
2023-07-22T12:32:33.491Z,25.95
2023-07-22T12:34:59.931Z,26.27
2023-07-22T12:37:26.829Z,26.51
2023-07-22T12:39:53.163Z,26.68
2023-07-22T12:42:19.574Z,26.52
2023-07-22T12:44:46.684Z,26.58
2023-07-22T12:47:13.382Z,26.81
2023-07-22T12:49:39.880Z,27.21
2023-07-22T12:52:09.921Z,27.34
2023-07-22T12:54:36.869Z,27.04
2023-07-22T12:57:03.317Z,26.88
2023-07-22T12:59:29.690Z,26.74
2023-07-22T13:01:56.238Z,26.76
2023-07-22T13:04:22.593Z,26.83
2023-07-22T13:06:48.917Z,26.90
2023-07-22T13:09:15.251Z,26.64
2023-07-22T13:11:41.627Z,26.37
2023-07-22T13:14:08.068Z,26.15
2023-07-22T13:16:34.435Z,25.99
2023-07-22T13:19:01.847Z,25.91
2023-07-22T13:21:29.013Z,25.94
2023-07-22T13:23:55.578Z,25.85
2023-07-22T13:26:22.239Z,25.77
2023-07-22T13:28:48.578Z,25.75
2023-07-22T13:31:14.937Z,25.90
2023-07-22T13:33:41.314Z,26.38
2023-07-22T13:36:07.909Z,26.83
2023-07-22T13:38:34.214Z,26.98
2023-07-22T13:41:00.580Z,26.85
2023-07-22T13:43:28.354Z,26.77
2023-07-22T13:45:54.883Z,26.61
2023-07-22T13:48:21.203Z,26.32
2023-07-22T13:50:47.652Z,26.23
2023-07-22T13:53:13.950Z,26.10
2023-07-22T13:55:40.284Z,25.97
2023-07-22T13:58:06.606Z,25.90
2023-07-22T14:00:32.973Z,26.14
2023-07-22T14:03:00.027Z,26.68
2023-07-22T14:05:26.579Z,27.26
2023-07-22T14:07:53.798Z,27.64
2023-07-22T14:10:20.178Z,27.52
2023-07-22T14:12:46.526Z,27.30
2023-07-22T14:15:12.971Z,27.03
2023-07-22T14:17:39.965Z,26.80
2023-07-22T14:20:08.029Z,26.70
2023-07-22T14:22:34.441Z,26.79
2023-07-22T14:25:00.856Z,26.89
2023-07-22T14:27:27.192Z,27.09
2023-07-22T14:29:53.520Z,27.28
2023-07-22T14:32:19.867Z,27.32
2023-07-22T14:34:46.219Z,27.31
2023-07-22T14:37:12.592Z,27.27
2023-07-22T14:39:38.981Z,27.30
2023-07-22T14:42:05.449Z,27.23
2023-07-22T14:44:31.764Z,27.05
2023-07-22T14:46:58.172Z,26.92
2023-07-22T14:49:24.504Z,26.81
2023-07-22T14:51:50.902Z,26.68
2023-07-22T14:54:17.239Z,26.77
2023-07-22T14:56:43.605Z,26.87
2023-07-22T14:59:09.997Z,26.84
2023-07-22T15:01:40.278Z,26.74
2023-07-22T15:04:07.001Z,26.72
2023-07-22T15:06:33.761Z,26.69
2023-07-22T15:09:01.925Z,26.72
2023-07-22T15:11:28.603Z,26.98
2023-07-22T15:13:55.181Z,27.21
2023-07-22T15:16:21.590Z,27.38
2023-07-22T15:18:47.912Z,27.48
2023-07-22T15:21:14.224Z,27.65
2023-07-22T15:23:40.593Z,27.81
2023-07-22T15:26:06.932Z,27.86
2023-07-22T15:28:33.254Z,27.86
2023-07-22T15:30:59.742Z,27.89
2023-07-22T15:33:26.474Z,27.88
2023-07-22T15:35:53.265Z,27.98
2023-07-22T15:38:19.599Z,28.01
2023-07-22T15:40:45.996Z,28.03
2023-07-22T15:43:12.337Z,28.02
2023-07-22T15:45:38.680Z,28.04
2023-07-22T15:48:06.737Z,28.03
2023-07-22T15:50:33.402Z,28.08
2023-07-22T15:52:59.773Z,28.13
2023-07-22T15:55:26.191Z,28.06
2023-07-22T15:57:52.576Z,28.09
2023-07-22T16:00:18.927Z,28.15
2023-07-22T16:02:45.381Z,28.02
2023-07-22T16:05:22.884Z,27.96
2023-07-22T16:07:49.802Z,27.84
2023-07-22T16:10:16.268Z,27.82
2023-07-22T16:12:42.937Z,27.95
2023-07-22T16:15:09.854Z,28.06
2023-07-22T16:17:36.416Z,28.06
2023-07-22T16:20:03.482Z,28.02
2023-07-22T16:22:30.524Z,27.94
2023-07-22T16:24:58.632Z,27.80
2023-07-22T16:27:24.938Z,27.72
2023-07-22T16:29:52.487Z,27.59
2023-07-22T16:32:18.900Z,27.60
2023-07-22T16:34:45.321Z,27.44
2023-07-22T16:37:11.640Z,27.41
2023-07-22T16:39:38.782Z,27.44
2023-07-22T16:42:05.603Z,27.43
2023-07-22T16:44:31.945Z,27.53
2023-07-22T16:46:58.286Z,27.56
2023-07-22T16:49:28.017Z,27.64
2023-07-22T16:51:54.369Z,27.55
2023-07-22T16:54:20.728Z,27.51
2023-07-22T16:56:47.060Z,27.38
2023-07-22T16:59:13.390Z,27.22
2023-07-22T17:01:39.778Z,27.03
2023-07-22T17:04:08.723Z,26.91
2023-07-22T17:06:35.310Z,26.84
2023-07-22T17:09:01.841Z,26.80
2023-07-22T17:11:28.601Z,26.72
2023-07-22T17:13:55.157Z,26.53
2023-07-22T17:16:21.873Z,26.32
2023-07-22T17:18:48.244Z,26.23
2023-07-22T17:21:14.694Z,26.27
2023-07-22T17:23:41.250Z,26.22
2023-07-22T17:26:07.717Z,26.18
2023-07-22T17:28:34.034Z,26.19
2023-07-22T17:31:01.162Z,26.15
2023-07-22T17:33:28.156Z,26.05
2023-07-22T17:35:54.544Z,26.04
2023-07-22T17:38:21.127Z,25.98
2023-07-22T17:40:48.195Z,25.95
2023-07-22T17:43:14.690Z,25.90
2023-07-22T17:45:41.169Z,25.89
2023-07-22T17:48:07.589Z,25.89
2023-07-22T17:50:34.020Z,25.90
2023-07-22T17:53:00.381Z,25.91
2023-07-22T17:55:27.369Z,25.85
2023-07-22T17:57:53.726Z,25.89
2023-07-22T18:00:20.132Z,25.88
2023-07-22T18:02:46.512Z,25.87
2023-07-22T18:05:13.009Z,25.86
2023-07-22T18:07:39.446Z,25.78
2023-07-22T18:10:06.200Z,25.75
2023-07-22T18:12:32.620Z,25.70
2023-07-22T18:14:58.947Z,25.65
2023-07-22T18:17:25.381Z,25.60
2023-07-22T18:19:51.753Z,25.59
2023-07-22T18:22:18.155Z,25.55
2023-07-22T18:24:44.611Z,25.49
2023-07-22T18:27:10.971Z,25.42
2023-07-22T18:29:37.305Z,25.41
2023-07-22T18:32:04.009Z,25.36
2023-07-22T18:34:30.368Z,25.28
2023-07-22T18:36:56.760Z,25.26
2023-07-22T18:39:24.073Z,25.25
2023-07-22T18:41:50.535Z,25.20
2023-07-22T18:44:16.881Z,25.18
2023-07-22T18:46:43.334Z,25.10
2023-07-22T18:49:09.792Z,25.05
2023-07-22T18:51:36.130Z,24.96
2023-07-22T18:54:02.560Z,24.86
2023-07-22T18:56:28.987Z,24.81
2023-07-22T18:58:58.266Z,24.79
2023-07-22T19:01:24.678Z,24.70
2023-07-22T19:03:51.220Z,24.59
2023-07-22T19:06:17.591Z,24.60
2023-07-22T19:08:43.948Z,24.54
2023-07-22T19:11:12.916Z,24.48
2023-07-22T19:13:39.735Z,24.38
2023-07-22T19:16:06.405Z,24.29
2023-07-22T19:18:32.774Z,24.26
2023-07-22T19:21:01.376Z,24.19
2023-07-22T19:23:28.885Z,24.09
2023-07-22T19:25:57.035Z,23.98
2023-07-22T19:28:23.476Z,23.94
2023-07-22T19:30:57.617Z,23.87
2023-07-22T19:33:25.151Z,23.81
2023-07-22T19:36:06.328Z,23.75
2023-07-22T19:38:34.177Z,23.67
2023-07-22T19:41:18.619Z,23.60
2023-07-22T19:43:45.609Z,23.54
2023-07-22T19:46:15.087Z,23.49
2023-07-22T19:48:42.949Z,23.44
2023-07-22T19:51:11.540Z,23.40
2023-07-22T19:53:38.044Z,23.37
2023-07-22T19:56:09.080Z,23.36
2023-07-22T19:58:36.580Z,23.37
2023-07-22T20:01:04.592Z,23.33
2023-07-22T20:03:32.265Z,23.34
2023-07-22T20:05:58.896Z,23.29
2023-07-22T20:08:25.254Z,23.26
2023-07-22T20:10:52.200Z,23.19
2023-07-22T20:13:18.699Z,23.19
2023-07-22T20:15:45.156Z,23.17
2023-07-22T20:18:11.599Z,23.12
2023-07-22T20:20:37.961Z,23.11
2023-07-22T20:23:04.376Z,23.06
2023-07-22T20:25:30.746Z,23.01
2023-07-22T20:27:58.217Z,22.93
2023-07-22T20:30:27.032Z,22.92
2023-07-22T20:32:54.166Z,22.92
2023-07-22T20:35:20.977Z,22.90
2023-07-22T20:37:47.370Z,22.88
2023-07-22T20:40:14.581Z,22.92
2023-07-22T20:42:42.462Z,22.93
2023-07-22T20:45:09.484Z,22.88
2023-07-22T20:47:35.896Z,22.88
2023-07-22T20:50:02.384Z,22.82
2023-07-22T20:52:28.747Z,22.78
2023-07-22T20:54:55.129Z,22.79
2023-07-22T20:57:21.587Z,22.77
2023-07-22T20:59:49.757Z,22.75
2023-07-22T21:02:16.635Z,22.73
2023-07-22T21:04:43.995Z,22.70
2023-07-22T21:07:11.354Z,22.64
2023-07-22T21:09:38.344Z,22.66
2023-07-22T21:12:05.074Z,22.63
2023-07-22T21:14:31.449Z,22.62
2023-07-22T21:16:57.771Z,22.66
2023-07-22T21:19:24.099Z,22.60
2023-07-22T21:21:50.451Z,22.68
2023-07-22T21:24:17.069Z,22.66
2023-07-22T21:26:43.508Z,22.65
2023-07-22T21:29:09.872Z,22.65
2023-07-22T21:31:36.290Z,22.62
2023-07-22T21:34:14.270Z,22.62
2023-07-22T21:36:41.612Z,22.66
2023-07-22T21:39:08.106Z,22.62
2023-07-22T21:41:34.457Z,22.58
2023-07-22T21:44:00.784Z,22.54
2023-07-22T21:46:27.165Z,22.52
2023-07-22T21:48:53.591Z,22.48
2023-07-22T21:51:19.949Z,22.46
2023-07-22T21:53:46.311Z,22.38
2023-07-22T21:56:12.641Z,22.35
2023-07-22T21:58:39.138Z,22.35
2023-07-22T22:01:05.827Z,22.29
2023-07-22T22:03:32.280Z,22.24
2023-07-22T22:05:59.479Z,22.19
2023-07-22T22:08:26.487Z,22.16
2023-07-22T22:10:52.920Z,22.15
2023-07-22T22:13:19.384Z,22.13
2023-07-22T22:15:45.746Z,22.12
2023-07-22T22:18:12.312Z,22.05
2023-07-22T22:20:38.735Z,22.09
2023-07-22T22:23:05.077Z,22.04
2023-07-22T22:25:31.440Z,22.06
2023-07-22T22:27:57.814Z,22.08
2023-07-22T22:30:24.314Z,22.07
2023-07-22T22:32:52.439Z,22.07
2023-07-22T22:35:19.003Z,22.10
2023-07-22T22:37:45.331Z,22.06
2023-07-22T22:40:11.855Z,22.06
2023-07-22T22:42:38.240Z,22.09
2023-07-22T22:45:05.144Z,22.08
2023-07-22T22:47:31.522Z,22.07
2023-07-22T22:49:57.956Z,22.08
2023-07-22T22:52:24.296Z,22.11
2023-07-22T22:54:50.705Z,22.12
2023-07-22T22:57:17.041Z,22.12
2023-07-22T22:59:43.356Z,22.13
2023-07-22T23:02:09.712Z,22.11
2023-07-22T23:04:36.084Z,22.13
2023-07-22T23:07:02.455Z,22.12
2023-07-22T23:09:28.808Z,22.13
2023-07-22T23:11:58.736Z,22.12
2023-07-22T23:14:25.118Z,22.11
2023-07-22T23:16:51.555Z,22.09
2023-07-22T23:19:19.081Z,22.06
2023-07-22T23:21:45.479Z,22.04
2023-07-22T23:24:11.860Z,22.01
2023-07-22T23:26:38.203Z,22.05
2023-07-22T23:29:04.718Z,22.05
2023-07-22T23:31:31.427Z,22.05
2023-07-22T23:33:58.048Z,22.04
2023-07-22T23:36:24.393Z,22.06
2023-07-22T23:38:50.812Z,22.08
2023-07-22T23:41:17.148Z,22.05
2023-07-22T23:43:43.557Z,22.05
2023-07-22T23:46:09.942Z,22.07
2023-07-22T23:48:36.326Z,22.07
2023-07-22T23:51:02.710Z,22.07
2023-07-22T23:53:29.148Z,22.05
2023-07-22T23:55:55.511Z,22.06
2023-07-22T23:58:21.864Z,22.04
